Time;durP1;ratioP1;P1;durP2;ratioP2;P2;SDS_P1;SDS_P2;PMS_P1;PMS_P2;Temp;Humidity;BMP_temperature;BMP_pressure;BME280_temperature;BME280_humidity;BME280_pressure;Samples;Min_cycle;Max_cycle;Signal;HPM_P1;HPM_P2
2022/10/02 00:02:26;;;;;;;11.38;3.10;;;;;;;;;;4974148;28;20089;-64
2022/10/02 00:04:57;;;;;;;7.50;2.65;;;;;;;;;;4977603;28;20201;-64
2022/10/02 00:07:34;;;;;;;10.25;2.53;;;;;;;;;;4976171;28;20060;-63
2022/10/02 00:10:08;;;;;;;5.43;2.20;;;;;;;;;;4979089;28;20069;-63
2022/10/02 00:12:35;;;;;;;6.72;2.63;;;;;;;;;;4977650;28;20360;-68
2022/10/02 00:15:16;;;;;;;8.77;2.80;;;;;;;;;;4980758;28;20188;-68
2022/10/02 00:17:46;;;;;;;6.35;2.30;;;;;;;;;;4975090;28;20099;-69
2022/10/02 00:20:13;;;;;;;7.85;2.40;;;;;;;;;;4975081;28;20069;-67
2022/10/02 00:22:54;;;;;;;8.57;2.65;;;;;;;;;;4978000;28;20058;-68
2022/10/02 00:25:44;;;;;;;8.10;2.03;;;;;;;;;;4974949;28;20519;-70
2022/10/02 00:28:30;;;;;;;8.80;2.42;;;;;;;;;;4959736;28;20050;-63
2022/10/02 00:31:12;;;;;;;5.53;1.95;;;;;;;;;;4977865;28;20116;-50
2022/10/02 00:33:38;;;;;;;13.65;2.85;;;;;;;;;;4971470;28;20074;-51
2022/10/02 00:36:17;;;;;;;10.15;2.83;;;;;;;;;;4977465;28;20133;-60
2022/10/02 00:38:54;;;;;;;12.30;3.50;;;;;;;;;;4972958;28;20125;-60
2022/10/02 00:41:55;;;;;;;9.77;2.83;;;;;;;;;;4977130;28;20209;-64
2022/10/02 00:44:48;;;;;;;10.07;2.53;;;;;;;;;;4942560;28;20100;-63
2022/10/02 00:47:29;;;;;;;7.00;2.40;;;;;;;;;;4975142;28;20484;-59
2022/10/02 00:50:22;;;;;;;15.05;3.13;;;;;;;;;;4971289;28;20505;-59
2022/10/02 00:53:00;;;;;;;6.97;2.45;;;;;;;;;;4972293;28;20038;-58
2022/10/02 00:56:01;;;;;;;9.82;3.40;;;;;;;;;;4956013;28;20042;-65
2022/10/02 00:58:38;;;;;;;10.18;3.70;;;;;;;;;;4955181;28;20046;-68
2022/10/02 01:01:13;;;;;;;9.80;3.25;;;;;;;;;;4976407;28;20109;-51
2022/10/02 01:03:40;;;;;;;5.93;2.60;;;;;;;;;;4978084;28;20046;-49
2022/10/02 01:06:09;;;;;;;11.52;3.08;;;;;;;;;;4971926;28;20441;-68
2022/10/02 01:08:36;;;;;;;11.90;2.95;;;;;;;;;;4975550;28;20201;-70
2022/10/02 01:11:03;;;;;;;8.27;2.88;;;;;;;;;;4975671;28;20034;-71
2022/10/02 01:13:30;;;;;;;7.15;2.70;;;;;;;;;;4973945;28;20379;-74
2022/10/02 01:16:02;;;;;;;7.53;3.10;;;;;;;;;;4973896;28;20130;-70
2022/10/02 01:18:29;;;;;;;8.68;2.80;;;;;;;;;;4955418;28;20113;-70
2022/10/02 01:21:04;;;;;;;10.48;2.97;;;;;;;;;;4982434;28;20484;-69
2022/10/02 01:23:34;;;;;;;7.22;2.58;;;;;;;;;;4972103;28;20162;-71
2022/10/02 01:26:00;;;;;;;9.48;2.30;;;;;;;;;;4977566;28;20567;-56
2022/10/02 01:28:26;;;;;;;9.18;3.22;;;;;;;;;;4973425;28;20082;-54
2022/10/02 01:30:56;;;;;;;9.18;2.13;;;;;;;;;;4973184;28;20055;-72
2022/10/02 01:33:22;;;;;;;9.60;2.17;;;;;;;;;;4974347;28;20050;-71
2022/10/02 01:35:48;;;;;;;8.98;2.35;;;;;;;;;;4978610;28;20390;-60
2022/10/02 01:38:17;;;;;;;8.75;2.20;;;;;;;;;;4978824;28;20390;-62
2022/10/02 01:40:42;;;;;;;7.95;2.38;;;;;;;;;;4971029;28;20070;-60
2022/10/02 01:43:18;;;;;;;7.25;2.17;;;;;;;;;;4972389;28;20186;-61
2022/10/02 01:46:19;;;;;;;6.80;2.10;;;;;;;;;;4971117;28;20413;-60
2022/10/02 01:49:23;;;;;;;9.20;2.10;;;;;;;;;;4972044;28;20046;-60
2022/10/02 01:52:12;;;;;;;10.93;2.30;;;;;;;;;;4961396;28;20141;-60
2022/10/02 01:54:40;;;;;;;9.93;2.30;;;;;;;;;;4970195;28;20055;-60
2022/10/02 01:57:14;;;;;;;7.82;2.10;;;;;;;;;;4970491;28;20373;-62
2022/10/02 01:59:55;;;;;;;10.68;1.90;;;;;;;;;;4968330;28;20038;-60
2022/10/02 02:02:32;;;;;;;16.73;2.80;;;;;;;;;;4973950;28;20041;-62
2022/10/02 02:05:09;;;;;;;12.70;2.20;;;;;;;;;;4972695;28;20621;-60
2022/10/02 02:07:38;;;;;;;13.77;2.35;;;;;;;;;;4981478;28;20058;-71
2022/10/02 02:10:20;;;;;;;16.02;2.17;;;;;;;;;;4979150;28;20046;-72
2022/10/02 02:13:08;;;;;;;11.82;2.17;;;;;;;;;;4971226;28;20473;-69
2022/10/02 02:15:57;;;;;;;10.13;2.55;;;;;;;;;;4978612;28;20053;-71
2022/10/02 02:18:27;;;;;;;13.25;2.30;;;;;;;;;;4974810;28;20051;-71
2022/10/02 02:21:03;;;;;;;8.32;1.98;;;;;;;;;;4973757;28;20056;-56
2022/10/02 02:23:32;;;;;;;7.78;2.05;;;;;;;;;;4976316;28;20482;-54
2022/10/02 02:26:12;;;;;;;9.50;2.17;;;;;;;;;;4973270;28;20034;-54
2022/10/02 02:28:46;;;;;;;10.10;1.80;;;;;;;;;;4979750;28;20049;-57
2022/10/02 02:31:15;;;;;;;10.23;2.10;;;;;;;;;;4977663;28;20135;-56
2022/10/02 02:33:49;;;;;;;14.32;2.22;;;;;;;;;;4963710;28;20106;-56
2022/10/02 02:36:18;;;;;;;8.27;1.80;;;;;;;;;;4972208;28;20097;-59
2022/10/02 02:38:52;;;;;;;9.02;1.77;;;;;;;;;;4977418;28;20046;-56
2022/10/02 02:41:26;;;;;;;7.63;1.80;;;;;;;;;;4973470;28;20038;-58
2022/10/02 02:43:57;;;;;;;11.85;2.10;;;;;;;;;;4969916;28;20062;-58
2022/10/02 02:47:02;;;;;;;11.45;2.03;;;;;;;;;;4975769;28;20046;-56
2022/10/02 02:49:25;;;;;;;11.95;1.92;;;;;;;;;;4975486;28;20042;-56
2022/10/02 02:51:52;;;;;;;8.38;2.17;;;;;;;;;;4972866;28;20057;-57
2022/10/02 02:54:28;;;;;;;8.77;1.65;;;;;;;;;;4973326;28;20047;-53
2022/10/02 02:56:56;;;;;;;8.82;1.65;;;;;;;;;;4968757;28;20055;-54
2022/10/02 02:59:24;;;;;;;8.40;1.58;;;;;;;;;;4974002;28;20038;-57
2022/10/02 03:01:50;;;;;;;7.55;1.80;;;;;;;;;;4973900;28;20133;-56
2022/10/02 03:04:15;;;;;;;9.48;2.00;;;;;;;;;;4957661;28;20112;-53
2022/10/02 03:06:44;;;;;;;11.27;1.95;;;;;;;;;;4976862;28;20417;-56
2022/10/02 03:09:15;;;;;;;11.48;1.50;;;;;;;;;;4973105;28;20584;-55
2022/10/02 03:11:41;;;;;;;11.13;2.45;;;;;;;;;;4975123;28;20065;-53
2022/10/02 03:14:25;;;;;;;12.85;2.25;;;;;;;;;;4976466;28;20069;-55
2022/10/02 03:17:14;;;;;;;11.45;2.08;;;;;;;;;;4974985;28;20062;-58
2022/10/02 03:19:40;;;;;;;9.85;1.90;;;;;;;;;;4973914;28;20641;-58
2022/10/02 03:22:19;;;;;;;7.38;1.80;;;;;;;;;;4972224;28;20046;-54
2022/10/02 03:25:04;;;;;;;10.75;1.95;;;;;;;;;;4976720;28;20047;-56
2022/10/02 03:27:40;;;;;;;8.73;1.77;;;;;;;;;;4972432;28;20109;-53
2022/10/02 03:30:11;;;;;;;8.88;1.50;;;;;;;;;;4971133;28;20065;-55
2022/10/02 03:32:39;;;;;;;10.10;1.98;;;;;;;;;;4954811;28;20481;-56
2022/10/02 03:35:10;;;;;;;7.10;1.63;;;;;;;;;;4960102;28;20590;-57
2022/10/02 03:37:35;;;;;;;9.57;1.77;;;;;;;;;;4958920;28;21164;-58
2022/10/02 03:40:03;;;;;;;12.18;1.98;;;;;;;;;;4971402;28;20498;-58
2022/10/02 03:42:31;;;;;;;7.93;1.75;;;;;;;;;;4969426;28;20178;-56
2022/10/02 03:44:57;;;;;;;7.72;1.77;;;;;;;;;;4975946;28;20059;-55
2022/10/02 03:47:22;;;;;;;13.05;2.08;;;;;;;;;;4973134;28;20052;-54
2022/10/02 03:49:48;;;;;;;11.93;1.83;;;;;;;;;;4972914;28;20134;-55
2022/10/02 03:52:19;;;;;;;10.68;1.90;;;;;;;;;;4959328;28;20050;-57
2022/10/02 03:54:44;;;;;;;9.05;1.85;;;;;;;;;;4964033;28;20449;-55
2022/10/02 03:57:20;;;;;;;6.68;1.70;;;;;;;;;;4961032;28;20153;-59
2022/10/02 04:00:11;;;;;;;9.32;1.60;;;;;;;;;;4979963;28;20644;-57
2022/10/02 04:02:43;;;;;;;10.93;2.45;;;;;;;;;;4974293;28;20038;-53
2022/10/02 04:05:30;;;;;;;10.40;2.05;;;;;;;;;;4980135;28;20042;-54
2022/10/02 04:08:01;;;;;;;11.52;2.00;;;;;;;;;;4976667;28;20101;-54
2022/10/02 04:10:45;;;;;;;11.02;2.03;;;;;;;;;;4978865;28;20047;-57
2022/10/02 04:13:31;;;;;;;12.73;1.50;;;;;;;;;;4973807;28;20065;-56
2022/10/02 04:16:02;;;;;;;10.88;1.73;;;;;;;;;;4975068;28;20501;-57
2022/10/02 04:18:39;;;;;;;12.57;1.65;;;;;;;;;;4963357;28;20220;-57
2022/10/02 04:21:12;;;;;;;14.95;1.90;;;;;;;;;;4979188;28;20043;-57
2022/10/02 04:23:44;;;;;;;12.52;2.17;;;;;;;;;;4957998;28;20057;-56
2022/10/02 04:26:16;;;;;;;8.77;1.70;;;;;;;;;;4973568;28;20412;-57
2022/10/02 04:28:47;;;;;;;10.43;1.90;;;;;;;;;;4978228;28;20038;-56
2022/10/02 04:31:13;;;;;;;14.85;2.80;;;;;;;;;;4975109;28;20111;-54
2022/10/02 04:33:39;;;;;;;13.18;2.50;;;;;;;;;;4973052;28;20062;-55
2022/10/02 04:36:23;;;;;;;17.80;2.08;;;;;;;;;;4960973;28;20058;-55
2022/10/02 04:39:12;;;;;;;9.57;1.80;;;;;;;;;;4978659;28;20065;-57
2022/10/02 04:41:56;;;;;;;12.73;2.13;;;;;;;;;;4977373;28;20126;-52
2022/10/02 04:44:33;;;;;;;14.07;1.80;;;;;;;;;;4976789;28;20034;-56
2022/10/02 04:47:10;;;;;;;14.48;2.65;;;;;;;;;;4974622;28;20055;-56
2022/10/02 04:50:03;;;;;;;7.32;1.92;;;;;;;;;;4978128;28;20516;-56
2022/10/02 04:52:57;;;;;;;13.18;2.63;;;;;;;;;;4979703;28;20046;-56
2022/10/02 04:55:31;;;;;;;10.98;1.92;;;;;;;;;;4974893;28;20468;-56
2022/10/02 04:58:30;;;;;;;7.97;1.83;;;;;;;;;;4975048;28;20050;-56
2022/10/02 05:01:04;;;;;;;9.73;1.60;;;;;;;;;;4961764;28;20050;-54
2022/10/02 05:04:07;;;;;;;8.00;1.98;;;;;;;;;;4976237;28;20049;-56
2022/10/02 05:06:50;;;;;;;12.43;2.20;;;;;;;;;;4975951;28;20074;-53
2022/10/02 05:09:41;;;;;;;8.90;1.63;;;;;;;;;;4973160;28;20061;-56
2022/10/02 05:12:32;;;;;;;14.50;1.73;;;;;;;;;;4976108;28;20054;-56
2022/10/02 05:15:13;;;;;;;8.52;1.52;;;;;;;;;;4976509;28;20042;-56
2022/10/02 05:17:53;;;;;;;10.40;1.65;;;;;;;;;;4975015;28;20034;-55
2022/10/02 05:20:56;;;;;;;10.02;1.67;;;;;;;;;;4978684;28;20126;-55
2022/10/02 05:23:44;;;;;;;9.27;2.28;;;;;;;;;;4971134;28;20054;-56
2022/10/02 05:26:47;;;;;;;9.60;1.67;;;;;;;;;;4957017;28;20181;-55
2022/10/02 05:29:50;;;;;;;10.65;1.80;;;;;;;;;;4971810;28;20165;-55
2022/10/02 05:32:24;;;;;;;11.45;2.33;;;;;;;;;;4975677;28;20054;-59
2022/10/02 05:34:53;;;;;;;7.95;1.70;;;;;;;;;;4956531;28;20054;-56
2022/10/02 05:37:45;;;;;;;10.10;1.85;;;;;;;;;;4975368;28;20057;-56
2022/10/02 05:40:25;;;;;;;9.73;1.80;;;;;;;;;;4979781;28;20069;-54
2022/10/02 05:43:09;;;;;;;7.75;1.67;;;;;;;;;;4978291;28;20038;-56
2022/10/02 05:45:38;;;;;;;11.95;2.17;;;;;;;;;;4976914;28;20049;-55
2022/10/02 05:48:16;;;;;;;11.30;1.90;;;;;;;;;;4977347;28;20397;-53
2022/10/02 05:50:48;;;;;;;11.77;2.65;;;;;;;;;;4981854;28;20030;-62
2022/10/02 05:53:29;;;;;;;8.32;1.70;;;;;;;;;;4980668;28;20046;-63
2022/10/02 05:56:01;;;;;;;11.25;2.10;;;;;;;;;;4979310;28;20523;-63
2022/10/02 05:58:31;;;;;;;10.73;1.60;;;;;;;;;;4979231;28;20073;-62
2022/10/02 06:01:24;;;;;;;11.18;2.22;;;;;;;;;;4979075;28;20053;-64
2022/10/02 06:04:14;;;;;;;12.15;2.03;;;;;;;;;;4979086;28;20137;-61
2022/10/02 06:06:53;;;;;;;16.30;2.47;;;;;;;;;;4975535;28;20568;-61
2022/10/02 06:09:19;;;;;;;9.20;2.28;;;;;;;;;;4981551;28;20049;-59
2022/10/02 06:12:14;;;;;;;7.85;1.75;;;;;;;;;;4975050;28;20725;-58
2022/10/02 06:14:45;;;;;;;10.73;2.30;;;;;;;;;;4979729;28;20042;-60
2022/10/02 06:17:20;;;;;;;16.08;3.33;;;;;;;;;;4974959;28;20745;-59
2022/10/02 06:19:51;;;;;;;9.82;2.30;;;;;;;;;;4980928;28;20069;-59
2022/10/02 06:22:23;;;;;;;13.93;2.20;;;;;;;;;;4973338;28;20042;-59
2022/10/02 06:25:28;;;;;;;9.02;1.85;;;;;;;;;;4978080;28;20054;-59
2022/10/02 06:28:16;;;;;;;10.07;2.15;;;;;;;;;;4877347;29;22133;-56
2022/10/02 06:30:46;;;;;;;15.18;2.47;;;;;;;;;;4961231;28;20140;-56
2022/10/02 06:33:18;;;;;;;15.20;2.20;;;;;;;;;;4977843;28;20054;-58
2022/10/02 06:36:21;;;;;;;10.23;2.28;;;;;;;;;;4975108;28;20482;-58
2022/10/02 06:39:11;;;;;;;7.10;2.13;;;;;;;;;;4982349;28;20265;-59
2022/10/02 06:42:01;;;;;;;9.20;1.90;;;;;;;;;;4979775;28;20128;-60
2022/10/02 06:45:02;;;;;;;6.70;1.92;;;;;;;;;;4977445;28;20070;-58
2022/10/02 06:47:40;;;;;;;8.00;1.90;;;;;;;;;;4974229;28;20060;-63
2022/10/02 06:50:35;;;;;;;7.60;1.75;;;;;;;;;;4978649;28;20035;-64
2022/10/02 06:53:29;;;;;;;8.43;1.70;;;;;;;;;;4960040;28;20042;-64
2022/10/02 06:56:21;;;;;;;8.93;1.88;;;;;;;;;;4972361;28;20519;-62
2022/10/02 06:58:56;;;;;;;8.18;1.80;;;;;;;;;;4977424;28;20073;-64
2022/10/02 07:01:36;;;;;;;6.78;1.30;;;;;;;;;;4971890;28;20063;-64
2022/10/02 07:04:31;;;;;;;6.47;1.20;;;;;;;;;;4976054;28;20107;-63
2022/10/02 07:07:17;;;;;;;6.20;1.50;;;;;;;;;;4972815;28;20054;-63
2022/10/02 07:10:04;;;;;;;12.40;1.40;;;;;;;;;;4973755;28;20046;-64
2022/10/02 07:12:55;;;;;;;3.78;1.20;;;;;;;;;;4973634;28;20068;-62
2022/10/02 07:15:24;;;;;;;6.95;1.60;;;;;;;;;;4973801;28;20404;-63
2022/10/02 07:18:21;;;;;;;4.78;1.30;;;;;;;;;;4977381;28;20058;-65
2022/10/02 07:20:57;;;;;;;6.35;1.25;;;;;;;;;;4977236;28;20125;-63
2022/10/02 07:23:38;;;;;;;3.22;1.00;;;;;;;;;;4976232;28;20464;-65
2022/10/02 07:26:23;;;;;;;4.63;0.82;;;;;;;;;;4976631;28;20068;-63
2022/10/02 07:29:12;;;;;;;5.93;1.55;;;;;;;;;;4975634;28;20119;-63
2022/10/02 07:31:46;;;;;;;3.67;0.90;;;;;;;;;;4966596;28;20135;-64
2022/10/02 07:34:23;;;;;;;4.82;1.15;;;;;;;;;;4977961;28;20050;-63
2022/10/02 07:37:10;;;;;;;2.85;1.02;;;;;;;;;;4975029;28;20053;-62
2022/10/02 07:39:36;;;;;;;6.70;1.30;;;;;;;;;;4977903;28;20054;-62
2022/10/02 07:42:14;;;;;;;4.40;1.17;;;;;;;;;;4981840;28;20046;-62
2022/10/02 07:45:25;;;;;;;4.60;0.90;;;;;;;;;;4980010;28;20030;-63
2022/10/02 07:48:12;;;;;;;4.72;1.15;;;;;;;;;;4982216;28;20058;-63
2022/10/02 07:50:43;;;;;;;3.65;1.00;;;;;;;;;;4956021;28;20047;-64
2022/10/02 07:53:14;;;;;;;4.80;1.20;;;;;;;;;;4980888;28;20077;-63
2022/10/02 07:55:47;;;;;;;5.32;1.10;;;;;;;;;;4979612;28;20054;-65
2022/10/02 07:58:18;;;;;;;3.97;1.25;;;;;;;;;;4976450;28;20042;-62
2022/10/02 08:00:57;;;;;;;3.25;1.27;;;;;;;;;;4979214;28;20054;-64
2022/10/02 08:03:42;;;;;;;2.72;0.98;;;;;;;;;;4982907;28;20097;-63
2022/10/02 08:06:08;;;;;;;3.53;1.20;;;;;;;;;;4981071;28;20054;-56
2022/10/02 08:08:59;;;;;;;3.58;1.40;;;;;;;;;;4978065;28;20030;-54
2022/10/02 08:11:33;;;;;;;3.92;1.55;;;;;;;;;;4960250;28;20050;-54
2022/10/02 08:14:21;;;;;;;3.53;1.10;;;;;;;;;;4976553;28;20172;-57
2022/10/02 08:16:50;;;;;;;3.63;1.10;;;;;;;;;;4959398;28;20054;-56
2022/10/02 08:19:28;;;;;;;5.05;0.93;;;;;;;;;;4978463;28;20054;-56
2022/10/02 08:22:10;;;;;;;2.97;1.08;;;;;;;;;;4973382;28;20437;-57
2022/10/02 08:24:42;;;;;;;3.00;1.10;;;;;;;;;;4980946;28;20043;-58
2022/10/02 08:27:42;;;;;;;3.22;1.00;;;;;;;;;;4978707;28;20449;-59
2022/10/02 08:30:12;;;;;;;2.05;0.98;;;;;;;;;;4921273;28;20051;-58
2022/10/02 08:32:37;;;;;;;1.67;1.00;;;;;;;;;;4981841;28;20038;-54
2022/10/02 08:35:17;;;;;;;4.18;0.90;;;;;;;;;;4978054;28;20034;-59
2022/10/02 08:37:55;;;;;;;3.95;1.08;;;;;;;;;;4955901;28;20055;-57
2022/10/02 08:40:29;;;;;;;2.17;1.10;;;;;;;;;;4977747;28;20046;-57
2022/10/02 08:43:16;;;;;;;3.28;0.90;;;;;;;;;;4980277;28;20048;-57
2022/10/02 08:46:03;;;;;;;4.53;1.30;;;;;;;;;;4977368;28;20398;-59
2022/10/02 08:49:13;;;;;;;3.75;1.42;;;;;;;;;;4976337;28;20061;-59
2022/10/02 08:52:24;;;;;;;3.15;1.30;;;;;;;;;;4964990;28;20397;-58
2022/10/02 08:54:59;;;;;;;4.53;0.90;;;;;;;;;;4978956;28;20041;-58
2022/10/02 08:57:51;;;;;;;2.95;1.15;;;;;;;;;;4975619;28;20046;-57
2022/10/02 09:00:28;;;;;;;1.98;0.90;;;;;;;;;;4956551;28;20047;-60
2022/10/02 09:03:25;;;;;;;6.10;1.00;;;;;;;;;;4978350;28;20072;-58
2022/10/02 09:06:15;;;;;;;4.80;1.30;;;;;;;;;;4975340;28;20041;-59
2022/10/02 09:08:54;;;;;;;3.03;0.93;;;;;;;;;;4979883;28;20062;-60
2022/10/02 09:11:38;;;;;;;3.85;1.00;;;;;;;;;;4969224;28;20030;-64
2022/10/02 09:14:20;;;;;;;3.53;1.40;;;;;;;;;;4974164;28;20054;-65
2022/10/02 09:17:11;;;;;;;3.03;1.33;;;;;;;;;;4939728;28;20054;-65
2022/10/02 09:19:48;;;;;;;3.63;1.33;;;;;;;;;;4944694;28;20532;-65
2022/10/02 09:22:32;;;;;;;3.90;1.25;;;;;;;;;;4970037;28;20073;-61
2022/10/02 09:25:23;;;;;;;1.70;0.80;;;;;;;;;;4978897;28;20354;-58
2022/10/02 09:28:11;;;;;;;2.00;1.02;;;;;;;;;;4978835;28;20061;-58
2022/10/02 09:30:50;;;;;;;3.83;0.93;;;;;;;;;;4972030;28;20050;-57
2022/10/02 09:33:15;;;;;;;2.15;0.90;;;;;;;;;;4968520;28;20050;-59
2022/10/02 09:36:06;;;;;;;2.75;0.90;;;;;;;;;;4974368;28;20038;-59
2022/10/02 09:38:57;;;;;;;4.55;0.90;;;;;;;;;;4977299;28;20861;-59
2022/10/02 09:41:53;;;;;;;2.88;0.93;;;;;;;;;;4976330;28;20042;-57
2022/10/02 09:44:33;;;;;;;1.42;0.80;;;;;;;;;;4973974;28;20077;-58
2022/10/02 09:47:18;;;;;;;2.20;1.17;;;;;;;;;;4978161;28;20437;-59
2022/10/02 09:49:59;;;;;;;1.90;1.20;;;;;;;;;;4976804;28;20045;-58
2022/10/02 09:52:39;;;;;;;2.75;0.80;;;;;;;;;;4976964;28;20050;-58
2022/10/02 09:55:11;;;;;;;1.40;0.88;;;;;;;;;;4973654;28;20050;-59
2022/10/02 09:57:58;;;;;;;4.80;1.35;;;;;;;;;;4972853;28;20551;-61
2022/10/02 10:00:36;;;;;;;1.10;0.68;;;;;;;;;;4953780;28;20589;-63
2022/10/02 10:03:46;;;;;;;3.05;0.90;;;;;;;;;;4973875;28;20492;-64
2022/10/02 10:06:24;;;;;;;2.38;1.00;;;;;;;;;;4940888;28;20552;-64
2022/10/02 10:09:19;;;;;;;2.45;1.10;;;;;;;;;;4977531;28;20054;-64
2022/10/02 10:12:12;;;;;;;1.48;0.73;;;;;;;;;;4921316;28;20052;-63
2022/10/02 10:14:37;;;;;;;1.05;0.73;;;;;;;;;;4973436;28;20038;-64
2022/10/02 10:17:40;;;;;;;4.18;1.55;;;;;;;;;;4976829;28;20458;-64
2022/10/02 10:20:18;;;;;;;4.63;1.30;;;;;;;;;;4977911;28;20069;-62
2022/10/02 10:23:07;;;;;;;4.72;0.90;;;;;;;;;;4975704;28;20046;-63
2022/10/02 10:26:05;;;;;;;2.40;0.75;;;;;;;;;;4939221;28;20046;-65
2022/10/02 10:28:58;;;;;;;2.83;0.80;;;;;;;;;;4920092;28;20057;-64
2022/10/02 10:31:59;;;;;;;3.80;1.08;;;;;;;;;;4975372;28;20046;-64
2022/10/02 10:35:09;;;;;;;5.53;1.10;;;;;;;;;;4967480;28;20057;-64
2022/10/02 10:40:52;;;;;;;3.45;0.70;;;;;;;;;;4974054;28;20457;-63
2022/10/02 10:43:21;;;;;;;1.80;0.82;;;;;;;;;;4977255;28;20074;-63
2022/10/02 10:46:13;;;;;;;1.70;0.82;;;;;;;;;;4975052;28;20085;-63
2022/10/02 10:49:08;;;;;;;2.15;1.00;;;;;;;;;;4973210;28;20054;-64
2022/10/02 10:51:44;;;;;;;3.65;1.17;;;;;;;;;;4974527;28;22270;-63
2022/10/02 10:54:42;;;;;;;1.52;0.98;;;;;;;;;;4974971;28;20054;-64
2022/10/02 10:57:21;;;;;;;1.40;0.70;;;;;;;;;;4975469;28;20125;-62
2022/10/02 10:59:52;;;;;;;0.82;0.70;;;;;;;;;;4970753;28;20054;-62
2022/10/02 11:03:03;;;;;;;0.90;0.60;;;;;;;;;;4969688;28;20085;-63
2022/10/02 11:05:46;;;;;;;1.85;0.75;;;;;;;;;;4934743;28;20460;-64
2022/10/02 11:08:53;;;;;;;1.77;0.70;;;;;;;;;;4983356;28;20108;-64
2022/10/02 11:11:56;;;;;;;1.15;0.50;;;;;;;;;;4977956;28;20483;-64
2022/10/02 11:14:21;;;;;;;0.50;0.50;;;;;;;;;;4979479;28;20054;-62
2022/10/02 11:16:58;;;;;;;1.42;0.52;;;;;;;;;;4978990;28;21684;-64
2022/10/02 11:19:36;;;;;;;1.85;0.40;;;;;;;;;;4976717;28;20050;-64
2022/10/02 11:22:06;;;;;;;4.45;0.68;;;;;;;;;;4978838;28;20523;-64
2022/10/02 11:24:49;;;;;;;1.15;0.63;;;;;;;;;;4978452;28;20058;-64
2022/10/02 11:27:39;;;;;;;0.77;0.43;;;;;;;;;;4975541;28;20053;-64
2022/10/02 11:30:40;;;;;;;0.50;0.50;;;;;;;;;;4974482;28;20078;-65
2022/10/02 11:33:21;;;;;;;1.92;0.50;;;;;;;;;;4945947;28;20109;-63
2022/10/02 11:36:25;;;;;;;0.60;0.60;;;;;;;;;;4976522;28;20046;-64
2022/10/02 11:39:19;;;;;;;2.42;0.70;;;;;;;;;;4904344;29;20086;-64
2022/10/02 11:41:59;;;;;;;0.68;0.60;;;;;;;;;;4900097;29;20060;-64
2022/10/02 11:44:50;;;;;;;0.63;0.63;;;;;;;;;;4956235;28;20042;-63
2022/10/02 11:47:30;;;;;;;0.90;0.70;;;;;;;;;;4986005;28;20504;-64
2022/10/02 11:50:09;;;;;;;1.60;0.70;;;;;;;;;;4982603;28;20082;-64
2022/10/02 11:52:52;;;;;;;2.88;0.80;;;;;;;;;;4978026;28;20054;-63
2022/10/02 11:55:24;;;;;;;1.17;0.60;;;;;;;;;;4978792;28;20141;-64
2022/10/02 11:58:21;;;;;;;1.83;0.57;;;;;;;;;;4981371;28;20149;-64
2022/10/02 12:01:10;;;;;;;1.45;0.85;;;;;;;;;;4975368;28;20042;-64
2022/10/02 12:03:51;;;;;;;2.85;0.57;;;;;;;;;;4973276;28;20054;-63
2022/10/02 12:06:43;;;;;;;1.13;0.50;;;;;;;;;;4974114;28;20053;-65
2022/10/02 12:09:34;;;;;;;0.80;0.57;;;;;;;;;;4977839;28;20050;-62
2022/10/02 12:12:43;;;;;;;1.60;0.60;;;;;;;;;;4975064;28;20100;-63
2022/10/02 12:15:26;;;;;;;0.77;0.47;;;;;;;;;;4957942;28;20053;-63
2022/10/02 12:18:02;;;;;;;1.85;0.60;;;;;;;;;;4975437;28;20058;-63
2022/10/02 12:27:13;;;;;;;0.70;0.60;;;;;;;;;;4981099;28;20061;-63
2022/10/02 12:29:59;;;;;;;1.85;0.50;;;;;;;;;;4983795;28;20034;-62
2022/10/02 12:32:46;;;;;;;0.75;0.50;;;;;;;;;;4980572;28;20107;-61
2022/10/02 12:35:39;;;;;;;0.70;0.50;;;;;;;;;;4984950;28;20046;-63
2022/10/02 12:38:27;;;;;;;0.77;0.50;;;;;;;;;;4982875;28;20050;-63
2022/10/02 12:41:12;;;;;;;1.85;0.50;;;;;;;;;;4983311;28;20039;-62
2022/10/02 12:43:58;;;;;;;0.70;0.50;;;;;;;;;;4976555;28;20065;-62
2022/10/02 12:46:38;;;;;;;1.55;0.70;;;;;;;;;;4984405;28;20120;-62
2022/10/02 12:49:27;;;;;;;0.70;0.63;;;;;;;;;;4985761;28;20104;-62
2022/10/02 12:52:27;;;;;;;1.08;0.50;;;;;;;;;;4977714;28;20060;-63
2022/10/02 12:55:11;;;;;;;4.63;0.50;;;;;;;;;;4980341;28;20054;-62
2022/10/02 12:57:52;;;;;;;0.77;0.50;;;;;;;;;;4978647;28;20049;-63
2022/10/02 13:00:19;;;;;;;1.42;0.52;;;;;;;;;;4980959;28;20039;-63
2022/10/02 13:03:04;;;;;;;1.13;0.50;;;;;;;;;;4978822;28;20054;-63
2022/10/02 13:05:42;;;;;;;1.27;0.57;;;;;;;;;;4980154;28;20071;-63
2022/10/02 13:08:17;;;;;;;1.70;0.50;;;;;;;;;;4978586;28;20046;-63
2022/10/02 13:11:00;;;;;;;0.60;0.40;;;;;;;;;;4982253;28;20046;-62
2022/10/02 13:13:41;;;;;;;2.53;0.50;;;;;;;;;;4980405;28;20046;-63
2022/10/02 13:16:13;;;;;;;1.55;0.50;;;;;;;;;;4977428;28;20193;-63
2022/10/02 13:18:51;;;;;;;2.83;0.77;;;;;;;;;;4977101;28;20054;-63
2022/10/02 13:21:29;;;;;;;2.15;0.73;;;;;;;;;;4975145;28;20103;-63
2022/10/02 13:23:54;;;;;;;1.65;0.88;;;;;;;;;;4975600;28;20051;-63
2022/10/02 13:26:44;;;;;;;1.33;0.60;;;;;;;;;;4980096;28;20077;-63
2022/10/02 13:29:28;;;;;;;2.67;1.30;;;;;;;;;;4976185;28;20086;-63
2022/10/02 13:32:17;;;;;;;4.03;1.20;;;;;;;;;;4977437;28;20050;-61
2022/10/02 13:35:20;;;;;;;1.23;0.80;;;;;;;;;;4979129;28;20058;-64
2022/10/02 13:37:57;;;;;;;1.10;1.00;;;;;;;;;;4977782;28;20145;-65
2022/10/02 13:40:35;;;;;;;2.35;0.93;;;;;;;;;;4985537;28;20854;-63
2022/10/02 13:43:04;;;;;;;2.38;1.10;;;;;;;;;;4976859;28;20053;-64
2022/10/02 13:45:43;;;;;;;1.48;1.00;;;;;;;;;;4967692;28;20050;-66
2022/10/02 13:48:10;;;;;;;1.15;0.90;;;;;;;;;;4978207;28;20051;-66
2022/10/02 13:50:51;;;;;;;0.90;0.80;;;;;;;;;;4970888;28;20084;-66
2022/10/02 13:53:19;;;;;;;3.60;0.80;;;;;;;;;;4974911;28;20049;-66
2022/10/02 13:56:08;;;;;;;2.30;0.60;;;;;;;;;;4987433;28;20050;-65
2022/10/02 13:58:55;;;;;;;2.58;0.77;;;;;;;;;;4942693;28;20054;-64
2022/10/02 14:01:39;;;;;;;1.95;0.70;;;;;;;;;;4978681;28;20039;-63
2022/10/02 14:04:20;;;;;;;2.88;0.80;;;;;;;;;;4983967;28;20104;-64
2022/10/02 14:06:54;;;;;;;2.58;0.73;;;;;;;;;;4977255;28;20062;-63
2022/10/02 14:09:47;;;;;;;1.02;0.40;;;;;;;;;;4980273;28;20069;-63
2022/10/02 14:12:39;;;;;;;1.30;0.52;;;;;;;;;;4974573;28;20116;-64
2022/10/02 14:15:29;;;;;;;1.42;0.70;;;;;;;;;;4970903;28;20567;-63
2022/10/02 14:18:26;;;;;;;2.38;0.70;;;;;;;;;;4975231;28;20079;-63
2022/10/02 14:21:19;;;;;;;4.13;1.23;;;;;;;;;;4969003;28;20081;-63
2022/10/02 14:24:16;;;;;;;3.30;0.75;;;;;;;;;;4974097;28;20567;-63
2022/10/02 14:27:11;;;;;;;1.30;0.50;;;;;;;;;;4966544;28;20049;-65
2022/10/02 14:30:02;;;;;;;1.75;0.60;;;;;;;;;;4970206;28;20109;-65
2022/10/02 14:32:30;;;;;;;3.53;0.70;;;;;;;;;;4963731;28;20044;-64
2022/10/02 14:35:18;;;;;;;1.35;0.60;;;;;;;;;;4971002;28;20046;-65
2022/10/02 14:37:56;;;;;;;1.25;0.80;;;;;;;;;;4973818;28;20072;-65
2022/10/02 14:40:30;;;;;;;3.35;0.80;;;;;;;;;;4975002;28;21234;-63
2022/10/02 14:43:24;;;;;;;1.77;1.45;;;;;;;;;;4973662;28;20087;-63
2022/10/02 14:46:07;;;;;;;2.72;1.40;;;;;;;;;;4971500;28;20053;-62
2022/10/02 14:48:42;;;;;;;1.13;0.82;;;;;;;;;;4974585;28;20129;-63
2022/10/02 14:51:32;;;;;;;1.95;1.10;;;;;;;;;;4975122;28;20520;-62
2022/10/02 14:54:17;;;;;;;1.98;0.80;;;;;;;;;;4972691;28;20063;-63
2022/10/02 14:56:56;;;;;;;2.42;0.73;;;;;;;;;;4970091;28;20053;-63
2022/10/02 14:59:46;;;;;;;1.63;0.80;;;;;;;;;;4972175;28;20065;-64
2022/10/02 15:02:49;;;;;;;1.52;0.90;;;;;;;;;;4968092;28;20051;-65
2022/10/02 15:05:37;;;;;;;2.30;0.83;;;;;;;;;;4971194;28;20046;-65
2022/10/02 15:08:41;;;;;;;2.63;0.70;;;;;;;;;;4972109;28;20293;-65
2022/10/02 15:11:38;;;;;;;3.60;0.90;;;;;;;;;;4963154;28;20088;-63
2022/10/02 15:14:32;;;;;;;1.95;1.08;;;;;;;;;;4952657;28;20080;-65
2022/10/02 15:20:03;;;;;;;6.93;1.10;;;;;;;;;;4973866;28;20393;-65
2022/10/02 15:22:37;;;;;;;2.70;0.80;;;;;;;;;;4978247;28;20125;-65
2022/10/02 15:25:16;;;;;;;0.82;0.80;;;;;;;;;;4979282;28;20046;-64
2022/10/02 15:27:57;;;;;;;2.15;0.80;;;;;;;;;;4970460;28;20057;-63
2022/10/02 15:30:25;;;;;;;2.40;0.90;;;;;;;;;;4968277;28;20181;-61
2022/10/02 15:33:19;;;;;;;3.58;2.17;;;;;;;;;;4963468;28;20141;-64
2022/10/02 15:36:05;;;;;;;;;;;;;;;;;;4964593;28;20054;-63
2022/10/02 15:38:49;;;;;;;2.75;1.67;;;;;;;;;;4965656;28;19918;-65
2022/10/02 15:41:39;;;;;;;2.95;1.80;;;;;;;;;;4971577;28;20042;-65
2022/10/02 15:44:23;;;;;;;1.95;1.00;;;;;;;;;;4970960;28;20047;-69
2022/10/02 15:46:48;;;;;;;1.52;1.02;;;;;;;;;;4971778;28;20089;-64
2022/10/02 15:49:50;;;;;;;2.40;1.20;;;;;;;;;;4977992;28;20141;-64
2022/10/02 15:52:32;;;;;;;3.92;1.30;;;;;;;;;;4972964;28;20592;-64
2022/10/02 15:55:22;;;;;;;4.35;1.20;;;;;;;;;;4977148;28;20054;-64
2022/10/02 15:58:16;;;;;;;2.80;1.30;;;;;;;;;;4976302;28;20054;-66
2022/10/02 16:01:07;;;;;;;1.90;1.00;;;;;;;;;;4978305;28;23949;-64
2022/10/02 16:03:35;;;;;;;6.75;1.42;;;;;;;;;;4980288;28;20083;-67
2022/10/02 16:06:19;;;;;;;2.13;1.10;;;;;;;;;;4972669;28;20397;-67
2022/10/02 16:09:12;;;;;;;1.40;1.20;;;;;;;;;;4975816;28;20050;-66
2022/10/02 16:12:06;;;;;;;4.35;1.55;;;;;;;;;;4967056;28;20147;-67
2022/10/02 16:14:57;;;;;;;3.60;1.30;;;;;;;;;;4965510;28;20034;-67
2022/10/02 16:17:35;;;;;;;4.35;1.45;;;;;;;;;;4968792;28;20166;-67
2022/10/02 16:20:18;;;;;;;2.72;1.42;;;;;;;;;;4968418;28;20060;-65